Time;durP1;ratioP1;P1;durP2;ratioP2;P2;SDS_P1;SDS_P2;PMS_P1;PMS_P2;Temp;Humidity;BMP_temperature;BMP_pressure;BME280_temperature;BME280_humidity;BME280_pressure;Samples;Min_cycle;Max_cycle;Signal;HPM_P1;HPM_P2
2022/05/06 00:01:31;;;;;;;8.83;6.60;;;;;;;;;;4972743;28;20204;-75
2022/05/06 00:03:58;;;;;;;7.40;6.60;;;;;;;;;;4972246;28;20572;-74
2022/05/06 00:06:25;;;;;;;8.17;6.07;;;;;;;;;;4967165;28;20614;-75
2022/05/06 00:08:51;;;;;;;7.87;6.73;;;;;;;;;;4971216;28;20312;-75
2022/05/06 00:11:18;;;;;;;9.00;6.50;;;;;;;;;;4972709;28;20675;-75
2022/05/06 00:13:44;;;;;;;9.23;6.20;;;;;;;;;;4976394;28;20201;-75
2022/05/06 00:16:10;;;;;;;10.07;6.63;;;;;;;;;;4969267;28;20723;-74
2022/05/06 00:18:37;;;;;;;7.00;6.13;;;;;;;;;;4965557;28;20189;-75
2022/05/06 00:21:03;;;;;;;8.77;6.50;;;;;;;;;;4961479;28;20333;-74
2022/05/06 00:23:29;;;;;;;8.47;6.60;;;;;;;;;;4965916;28;20193;-75
2022/05/06 00:25:56;;;;;;;7.33;6.00;;;;;;;;;;4970694;28;20216;-76
2022/05/06 00:28:22;;;;;;;8.33;6.07;;;;;;;;;;4971807;28;20243;-75
2022/05/06 00:30:48;;;;;;;8.47;5.90;;;;;;;;;;4968494;28;20299;-75
2022/05/06 00:33:15;;;;;;;7.50;6.13;;;;;;;;;;4980451;28;20545;-74
2022/05/06 00:35:41;;;;;;;8.53;5.97;;;;;;;;;;4964791;28;20197;-74
2022/05/06 00:38:08;;;;;;;5.80;5.20;;;;;;;;;;4972042;28;20185;-75
2022/05/06 00:40:35;;;;;;;8.20;5.83;;;;;;;;;;4968606;28;20610;-75
2022/05/06 00:43:01;;;;;;;6.63;5.70;;;;;;;;;;4969429;28;20275;-75
2022/05/06 00:45:32;;;;;;;8.63;5.70;;;;;;;;;;4972416;28;20219;-75
2022/05/06 00:47:59;;;;;;;6.40;5.73;;;;;;;;;;4971961;28;20239;-75
2022/05/06 00:50:25;;;;;;;7.10;5.13;;;;;;;;;;4970954;28;20184;-75
2022/05/06 00:52:51;;;;;;;7.27;5.43;;;;;;;;;;4972490;28;20196;-75
2022/05/06 00:55:17;;;;;;;7.93;6.23;;;;;;;;;;4971517;28;20268;-75
2022/05/06 00:57:43;;;;;;;7.23;6.43;;;;;;;;;;4967085;28;20550;-74
2022/05/06 01:00:19;;;;;;;6.80;6.10;;;;;;;;;;4956484;28;20192;-75
2022/05/06 01:02:45;;;;;;;6.97;6.23;;;;;;;;;;4971889;28;20184;-75
2022/05/06 01:05:12;;;;;;;8.27;7.03;;;;;;;;;;4968688;28;20949;-75
2022/05/06 01:07:39;;;;;;;7.60;6.90;;;;;;;;;;4970193;28;20243;-75
2022/05/06 01:10:06;;;;;;;9.00;6.27;;;;;;;;;;4968645;28;20263;-75
2022/05/06 01:12:32;;;;;;;8.03;7.13;;;;;;;;;;4971589;28;20211;-75
2022/05/06 01:15:02;;;;;;;7.93;6.37;;;;;;;;;;4953369;28;20252;-75
2022/05/06 01:17:37;;;;;;;8.50;6.63;;;;;;;;;;4970344;28;20589;-75
2022/05/06 01:20:03;;;;;;;10.47;6.80;;;;;;;;;;4968526;28;20211;-75
2022/05/06 01:22:30;;;;;;;11.40;7.93;;;;;;;;;;4968697;28;20184;-75
2022/05/06 01:24:57;;;;;;;11.23;8.23;;;;;;;;;;4971091;28;20231;-75
2022/05/06 01:27:28;;;;;;;9.07;8.13;;;;;;;;;;4972364;28;20613;-75
2022/05/06 01:29:56;;;;;;;9.70;8.23;;;;;;;;;;4971317;28;20528;-75
2022/05/06 01:32:22;;;;;;;8.40;7.30;;;;;;;;;;4971859;28;20216;-75
2022/05/06 01:34:50;;;;;;;10.30;8.50;;;;;;;;;;4972907;28;20722;-75
2022/05/06 01:37:21;;;;;;;9.53;7.33;;;;;;;;;;4970865;28;20270;-75
2022/05/06 01:39:51;;;;;;;11.00;8.90;;;;;;;;;;4969452;28;20176;-75
2022/05/06 01:42:20;;;;;;;12.70;8.60;;;;;;;;;;4966298;28;20263;-75
2022/05/06 01:44:52;;;;;;;10.17;8.83;;;;;;;;;;4965389;28;20181;-75
2022/05/06 01:47:19;;;;;;;11.23;9.47;;;;;;;;;;4962618;28;20220;-75
2022/05/06 01:49:54;;;;;;;9.67;8.57;;;;;;;;;;4969954;28;20199;-75
2022/05/06 01:52:22;;;;;;;10.70;8.00;;;;;;;;;;4965407;28;20209;-75
2022/05/06 01:54:48;;;;;;;10.53;8.67;;;;;;;;;;4969403;28;20195;-75
2022/05/06 01:57:16;;;;;;;10.23;8.10;;;;;;;;;;4959512;28;20258;-75
2022/05/06 01:59:43;;;;;;;10.07;8.03;;;;;;;;;;4964307;28;20193;-75
2022/05/06 02:02:21;;;;;;;10.67;8.27;;;;;;;;;;4968115;28;20180;-75
2022/05/06 02:07:40;;;;;;;9.33;8.27;;;;;;;;;;4963010;28;20211;-74
2022/05/06 02:10:07;;;;;;;10.10;8.10;;;;;;;;;;4969036;28;20192;-75
2022/05/06 02:12:37;;;;;;;9.77;8.07;;;;;;;;;;4966296;28;20800;-75
2022/05/06 02:15:28;;;;;;;9.57;8.57;;;;;;;;;;4962138;28;20223;-75
2022/05/06 02:18:17;;;;;;;11.67;8.20;;;;;;;;;;4970599;28;20727;-75
2022/05/06 02:21:02;;;;;;;12.87;9.00;;;;;;;;;;4970953;28;20193;-74
2022/05/06 02:23:38;;;;;;;11.77;8.27;;;;;;;;;;4970995;28;20546;-74
2022/05/06 02:26:24;;;;;;;11.50;7.70;;;;;;;;;;4960634;28;20754;-75
2022/05/06 02:28:54;;;;;;;11.73;8.63;;;;;;;;;;4967614;28;20196;-75
2022/05/06 02:34:15;;;;;;;10.63;8.40;;;;;;;;;;4972198;28;20220;-74
2022/05/06 02:36:41;;;;;;;8.63;7.70;;;;;;;;;;4969431;28;20192;-75
2022/05/06 02:39:08;;;;;;;8.93;8.00;;;;;;;;;;4970165;28;20189;-75
2022/05/06 02:41:35;;;;;;;9.93;7.73;;;;;;;;;;4963898;28;20244;-75
2022/05/06 02:44:04;;;;;;;8.47;7.53;;;;;;;;;;4966307;28;20188;-75
2022/05/06 02:46:36;;;;;;;7.97;7.10;;;;;;;;;;4969821;28;20200;-75
2022/05/06 02:49:03;;;;;;;8.40;7.33;;;;;;;;;;4966742;28;20224;-75
2022/05/06 02:51:29;;;;;;;10.70;6.97;;;;;;;;;;4973190;28;20593;-74
2022/05/06 02:53:56;;;;;;;8.40;7.33;;;;;;;;;;4973005;28;20209;-75
2022/05/06 02:56:28;;;;;;;9.63;7.80;;;;;;;;;;4967086;28;20212;-75
2022/05/06 02:58:58;;;;;;;8.30;7.37;;;;;;;;;;4973799;28;20203;-75
2022/05/06 03:01:28;;;;;;;10.10;7.27;;;;;;;;;;4973280;28;20185;-75
2022/05/06 03:03:56;;;;;;;8.40;7.30;;;;;;;;;;4973232;28;20192;-75
2022/05/06 03:06:22;;;;;;;9.60;7.73;;;;;;;;;;4966527;28;20231;-75
2022/05/06 03:08:51;;;;;;;7.63;6.93;;;;;;;;;;4986820;28;20193;-75
2022/05/06 03:11:22;;;;;;;9.77;7.40;;;;;;;;;;4973437;28;20188;-75
2022/05/06 03:13:54;;;;;;;8.67;7.43;;;;;;;;;;4971539;28;20208;-74
2022/05/06 03:16:25;;;;;;;9.27;7.67;;;;;;;;;;4972429;28;20215;-75
2022/05/06 03:18:51;;;;;;;8.87;6.87;;;;;;;;;;4970434;28;20185;-75
2022/05/06 03:21:17;;;;;;;8.87;7.17;;;;;;;;;;4972707;28;20197;-75
2022/05/06 03:23:45;;;;;;;9.40;7.07;;;;;;;;;;4969181;28;20553;-75
2022/05/06 03:26:11;;;;;;;8.43;7.40;;;;;;;;;;4969095;28;20839;-75
2022/05/06 03:28:37;;;;;;;8.63;7.00;;;;;;;;;;4973405;28;20287;-75
2022/05/06 03:31:03;;;;;;;10.33;7.87;;;;;;;;;;4973451;28;20188;-75
2022/05/06 03:33:38;;;;;;;8.60;7.60;;;;;;;;;;4968494;28;20218;-75
2022/05/06 03:36:15;;;;;;;7.83;7.03;;;;;;;;;;4967176;28;20202;-75
2022/05/06 03:38:55;;;;;;;8.30;6.70;;;;;;;;;;4969805;28;20294;-75
2022/05/06 03:41:25;;;;;;;7.97;6.60;;;;;;;;;;4972441;28;20177;-74
2022/05/06 03:43:52;;;;;;;8.73;7.40;;;;;;;;;;4972597;28;20184;-75
2022/05/06 03:46:21;;;;;;;9.87;6.90;;;;;;;;;;4971983;28;20677;-75
2022/05/06 03:48:51;;;;;;;9.47;7.73;;;;;;;;;;4971536;28;20211;-75
2022/05/06 03:51:21;;;;;;;10.93;8.23;;;;;;;;;;4972291;28;20188;-75
2022/05/06 03:53:49;;;;;;;8.43;7.53;;;;;;;;;;4953037;29;20300;-75
2022/05/06 03:56:16;;;;;;;7.73;6.93;;;;;;;;;;4967268;28;20615;-75
2022/05/06 03:59:16;;;;;;;9.73;7.13;;;;;;;;;;4931807;28;20565;-75
2022/05/06 04:01:49;;;;;;;8.57;6.60;;;;;;;;;;4971606;28;20180;-75
2022/05/06 04:04:26;;;;;;;7.17;6.47;;;;;;;;;;4954234;28;20181;-75
2022/05/06 04:06:53;;;;;;;7.17;6.47;;;;;;;;;;4971383;28;20735;-75
2022/05/06 04:09:21;;;;;;;7.83;6.70;;;;;;;;;;4962775;28;20260;-75
2022/05/06 04:11:47;;;;;;;8.63;6.87;;;;;;;;;;4972012;28;20215;-75
2022/05/06 04:14:14;;;;;;;7.53;6.57;;;;;;;;;;4972772;28;20212;-74
2022/05/06 04:16:44;;;;;;;9.60;7.13;;;;;;;;;;4984082;28;20296;-75
2022/05/06 04:19:28;;;;;;;7.80;6.83;;;;;;;;;;4966613;28;20185;-74
2022/05/06 04:24:51;;;;;;;8.57;6.87;;;;;;;;;;4968554;28;20181;-73
2022/05/06 04:27:20;;;;;;;9.67;7.50;;;;;;;;;;4971941;28;20200;-76
2022/05/06 04:29:48;;;;;;;8.57;6.50;;;;;;;;;;4968062;28;20228;-75
2022/05/06 04:32:15;;;;;;;8.17;7.33;;;;;;;;;;4954542;28;20212;-75
2022/05/06 04:34:41;;;;;;;9.00;6.80;;;;;;;;;;4963599;28;20306;-77
2022/05/06 04:37:08;;;;;;;8.30;6.83;;;;;;;;;;4965480;28;20205;-78
2022/05/06 04:39:38;;;;;;;7.77;6.97;;;;;;;;;;4971942;28;20248;-77
2022/05/06 04:42:05;;;;;;;7.83;6.77;;;;;;;;;;4971848;28;20185;-78
2022/05/06 04:44:35;;;;;;;8.20;7.23;;;;;;;;;;4970347;28;20263;-79
2022/05/06 04:47:01;;;;;;;10.10;6.67;;;;;;;;;;4971465;28;20271;-76
2022/05/06 04:49:29;;;;;;;8.30;7.27;;;;;;;;;;4968645;28;20180;-75
2022/05/06 04:51:56;;;;;;;7.73;6.97;;;;;;;;;;4954284;28;20582;-75
2022/05/06 04:54:22;;;;;;;10.30;7.50;;;;;;;;;;4970502;28;20664;-78
2022/05/06 04:56:49;;;;;;;8.33;6.40;;;;;;;;;;4971191;28;20204;-75
2022/05/06 04:59:22;;;;;;;7.20;6.50;;;;;;;;;;4967433;28;20185;-75
2022/05/06 05:01:50;;;;;;;7.53;6.60;;;;;;;;;;4963533;28;20189;-75
2022/05/06 05:04:17;;;;;;;9.17;6.60;;;;;;;;;;4947504;28;20284;-76
2022/05/06 05:06:45;;;;;;;8.23;5.77;;;;;;;;;;4971510;28;20255;-75
2022/05/06 05:09:14;;;;;;;7.33;6.13;;;;;;;;;;4962146;28;20193;-75
2022/05/06 05:11:42;;;;;;;6.87;5.70;;;;;;;;;;4977566;28;20185;-75
2022/05/06 05:14:16;;;;;;;6.57;5.43;;;;;;;;;;4965853;28;20209;-75
2022/05/06 05:16:42;;;;;;;7.13;5.90;;;;;;;;;;4970565;28;20204;-75
2022/05/06 05:19:09;;;;;;;6.57;5.50;;;;;;;;;;4967076;28;20228;-77
2022/05/06 05:21:42;;;;;;;6.60;5.37;;;;;;;;;;4971230;28;20239;-77
2022/05/06 05:24:09;;;;;;;8.03;5.17;;;;;;;;;;4960952;28;20644;-74
2022/05/06 05:26:38;;;;;;;7.00;5.13;;;;;;;;;;4967118;28;20208;-74
2022/05/06 05:29:06;;;;;;;6.63;5.43;;;;;;;;;;4967356;28;20200;-74
2022/05/06 05:31:32;;;;;;;7.23;5.60;;;;;;;;;;4968968;28;20189;-74
2022/05/06 05:33:59;;;;;;;8.63;5.40;;;;;;;;;;4960538;28;20217;-74
2022/05/06 05:36:26;;;;;;;6.57;5.57;;;;;;;;;;4966450;28;20278;-74
2022/05/06 05:38:54;;;;;;;6.40;5.50;;;;;;;;;;4963877;28;20185;-74
2022/05/06 05:41:21;;;;;;;8.70;5.53;;;;;;;;;;4967057;28;20268;-74
2022/05/06 05:49:19;;;;;;;7.43;5.20;;;;;;;;;;4966606;28;20200;-74
2022/05/06 05:51:46;;;;;;;6.73;5.87;;;;;;;;;;4966756;28;20227;-75
2022/05/06 05:54:15;;;;;;;6.53;5.43;;;;;;;;;;4968427;28;20624;-74
2022/05/06 05:56:42;;;;;;;7.27;5.60;;;;;;;;;;4967759;28;20220;-74
2022/05/06 05:59:10;;;;;;;6.90;5.63;;;;;;;;;;4967974;28;20291;-74
2022/05/06 06:01:36;;;;;;;7.23;5.20;;;;;;;;;;4966902;28;20240;-74
2022/05/06 06:04:05;;;;;;;8.63;5.03;;;;;;;;;;4968240;28;20263;-74
2022/05/06 06:06:32;;;;;;;6.90;5.13;;;;;;;;;;4968116;28;20211;-74
2022/05/06 06:08:59;;;;;;;6.47;5.20;;;;;;;;;;4967445;28;20213;-74
2022/05/06 06:11:27;;;;;;;6.10;5.03;;;;;;;;;;4984965;28;20180;-74
2022/05/06 06:13:55;;;;;;;6.70;5.30;;;;;;;;;;4958206;28;20219;-74
2022/05/06 06:16:24;;;;;;;7.23;5.50;;;;;;;;;;4965920;28;20308;-74
2022/05/06 06:18:51;;;;;;;7.17;5.53;;;;;;;;;;4969335;28;20173;-74
2022/05/06 06:21:21;;;;;;;7.23;5.67;;;;;;;;;;4969816;28;20216;-74
2022/05/06 06:23:48;;;;;;;8.40;5.60;;;;;;;;;;4970136;28;20199;-74
2022/05/06 06:26:14;;;;;;;7.70;5.40;;;;;;;;;;4974006;28;20514;-74
2022/05/06 06:28:40;;;;;;;6.60;6.00;;;;;;;;;;4973096;28;20176;-74
2022/05/06 06:31:10;;;;;;;9.50;5.87;;;;;;;;;;4974101;28;20220;-74
2022/05/06 06:33:40;;;;;;;7.63;5.70;;;;;;;;;;4974122;28;20212;-73
2022/05/06 06:36:11;;;;;;;7.67;5.57;;;;;;;;;;4974917;28;20200;-74
2022/05/06 06:38:37;;;;;;;8.50;5.90;;;;;;;;;;4974497;28;20231;-74
2022/05/06 06:41:04;;;;;;;6.60;5.70;;;;;;;;;;4976612;28;20200;-74
2022/05/06 06:43:31;;;;;;;7.47;5.87;;;;;;;;;;4975329;28;20173;-74
2022/05/06 06:46:16;;;;;;;7.50;5.43;;;;;;;;;;4973438;28;20223;-74
2022/05/06 06:48:59;;;;;;;8.70;4.90;;;;;;;;;;4972186;28;20561;-74
2022/05/06 06:51:36;;;;;;;8.47;6.03;;;;;;;;;;4973391;28;20188;-74
2022/05/06 06:54:02;;;;;;;7.67;5.97;;;;;;;;;;4972983;28;20223;-73
2022/05/06 06:56:28;;;;;;;6.80;6.10;;;;;;;;;;4974613;28;20200;-74
2022/05/06 06:59:08;;;;;;;8.13;6.20;;;;;;;;;;4974394;28;20846;-74
2022/05/06 07:01:34;;;;;;;6.97;6.20;;;;;;;;;;4963189;28;20189;-74
2022/05/06 07:04:00;;;;;;;9.23;6.27;;;;;;;;;;4971520;28;20572;-74
2022/05/06 07:11:57;;;;;;;7.57;5.77;;;;;;;;;;4962446;28;20192;-74
2022/05/06 07:14:29;;;;;;;7.60;5.73;;;;;;;;;;4969640;28;20180;-74
2022/05/06 07:16:55;;;;;;;6.47;5.77;;;;;;;;;;4970712;28;20239;-74
2022/05/06 07:19:22;;;;;;;8.17;6.40;;;;;;;;;;4972627;28;20276;-74
2022/05/06 07:21:52;;;;;;;10.23;6.37;;;;;;;;;;4974133;28;20636;-74
2022/05/06 07:24:18;;;;;;;7.50;6.33;;;;;;;;;;4980073;28;20197;-75
2022/05/06 07:26:45;;;;;;;6.37;5.60;;;;;;;;;;4973086;28;20228;-73
2022/05/06 07:29:17;;;;;;;7.67;6.00;;;;;;;;;;4970852;28;20188;-74
2022/05/06 07:32:12;;;;;;;8.60;5.90;;;;;;;;;;4929217;28;20252;-74
2022/05/06 07:34:38;;;;;;;7.00;5.80;;;;;;;;;;4955344;28;20323;-74
2022/05/06 07:37:05;;;;;;;7.77;6.37;;;;;;;;;;4972818;28;20201;-74
2022/05/06 07:39:31;;;;;;;7.30;5.73;;;;;;;;;;4973423;28;20335;-74
2022/05/06 07:41:57;;;;;;;7.80;6.00;;;;;;;;;;4973588;28;20177;-73
2022/05/06 07:44:23;;;;;;;8.37;6.07;;;;;;;;;;4976549;28;20188;-74
2022/05/06 07:46:49;;;;;;;8.03;6.27;;;;;;;;;;4969744;28;20563;-74
2022/05/06 07:49:16;;;;;;;7.67;6.50;;;;;;;;;;4978903;28;20188;-75
2022/05/06 07:51:43;;;;;;;8.33;6.13;;;;;;;;;;4971408;28;20259;-74
2022/05/06 07:54:09;;;;;;;7.83;6.03;;;;;;;;;;4973726;28;20212;-74
2022/05/06 07:56:35;;;;;;;7.50;6.07;;;;;;;;;;4969187;28;20216;-74
2022/05/06 07:59:02;;;;;;;7.57;6.40;;;;;;;;;;4972186;28;20230;-74
2022/05/06 08:06:57;;;;;;;7.30;5.47;;;;;;;;;;4973216;28;20577;-74
2022/05/06 08:09:24;;;;;;;6.70;5.83;;;;;;;;;;4972777;28;20177;-74
2022/05/06 08:11:50;;;;;;;6.07;5.13;;;;;;;;;;4972417;28;20224;-75
2022/05/06 08:14:16;;;;;;;6.53;5.13;;;;;;;;;;4973383;28;20219;-74
2022/05/06 08:16:43;;;;;;;6.67;5.50;;;;;;;;;;4973566;28;20295;-75
2022/05/06 08:19:09;;;;;;;6.93;4.80;;;;;;;;;;4962884;28;20262;-74
2022/05/06 08:21:36;;;;;;;5.70;4.60;;;;;;;;;;4961991;28;20705;-75
2022/05/06 08:24:02;;;;;;;7.03;3.90;;;;;;;;;;4972961;28;20191;-75
2022/05/06 08:26:28;;;;;;;4.83;3.80;;;;;;;;;;4973020;28;20208;-75
2022/05/06 08:28:55;;;;;;;3.80;2.60;;;;;;;;;;4971853;28;20184;-75
2022/05/06 08:31:21;;;;;;;3.17;2.60;;;;;;;;;;4971841;28;20191;-75
2022/05/06 08:33:47;;;;;;;3.00;2.47;;;;;;;;;;4973068;28;20311;-75
2022/05/06 08:36:14;;;;;;;2.87;2.50;;;;;;;;;;4973417;28;20203;-74
2022/05/06 08:38:41;;;;;;;3.47;2.60;;;;;;;;;;4970256;28;20195;-74
2022/05/06 08:41:10;;;;;;;4.73;2.60;;;;;;;;;;4972881;28;20235;-75
2022/05/06 08:43:37;;;;;;;5.10;2.70;;;;;;;;;;4972788;28;20219;-75
2022/05/06 08:51:36;;;;;;;3.30;2.40;;;;;;;;;;4968351;28;20185;-75
2022/05/06 08:54:02;;;;;;;8.17;2.73;;;;;;;;;;4972568;28;20291;-74
2022/05/06 08:56:29;;;;;;;3.60;2.60;;;;;;;;;;4969908;28;20705;-75
2022/05/06 08:58:55;;;;;;;5.50;2.50;;;;;;;;;;4966724;28;20277;-74
2022/05/06 09:01:22;;;;;;;4.63;2.40;;;;;;;;;;4972649;28;20176;-75
2022/05/06 09:03:48;;;;;;;3.27;2.37;;;;;;;;;;4971489;28;20191;-75
2022/05/06 09:06:21;;;;;;;6.77;3.00;;;;;;;;;;4975254;28;20196;-75
2022/05/06 09:08:49;;;;;;;5.57;2.80;;;;;;;;;;4963656;28;20255;-75
2022/05/06 09:11:17;;;;;;;5.60;2.80;;;;;;;;;;4972150;28;20223;-75
2022/05/06 09:14:03;;;;;;;4.87;2.37;;;;;;;;;;4972478;28;20219;-75
2022/05/06 09:16:41;;;;;;;3.80;2.30;;;;;;;;;;4971033;28;20227;-75
2022/05/06 09:19:09;;;;;;;5.60;2.67;;;;;;;;;;4969080;28;20192;-75
2022/05/06 09:21:41;;;;;;;5.43;2.67;;;;;;;;;;4965409;28;20596;-75
2022/05/06 09:24:17;;;;;;;6.27;2.50;;;;;;;;;;4971156;28;20275;-75
2022/05/06 09:26:59;;;;;;;3.70;2.30;;;;;;;;;;4968916;28;20208;-75
2022/05/06 09:29:28;;;;;;;4.90;2.30;;;;;;;;;;4984873;28;20243;-74
2022/05/06 09:31:56;;;;;;;3.63;2.40;;;;;;;;;;4970012;28;20207;-74
2022/05/06 09:34:28;;;;;;;3.83;2.27;;;;;;;;;;4969637;28;20303;-77
2022/05/06 09:36:57;;;;;;;2.87;2.33;;;;;;;;;;4971293;28;20207;-76
2022/05/06 09:39:23;;;;;;;3.50;2.30;;;;;;;;;;4972137;28;20212;-77
2022/05/06 09:42:00;;;;;;;3.43;2.30;;;;;;;;;;4972809;28;20668;-75
2022/05/06 09:44:27;;;;;;;2.73;2.03;;;;;;;;;;4972945;28;20184;-78
2022/05/06 09:47:08;;;;;;;5.50;2.40;;;;;;;;;;4971593;28;20232;-77
2022/05/06 09:49:40;;;;;;;2.70;2.20;;;;;;;;;;4968039;28;20187;-77
2022/05/06 09:52:10;;;;;;;3.70;2.33;;;;;;;;;;4974177;28;20674;-77
2022/05/06 09:54:36;;;;;;;2.57;1.90;;;;;;;;;;4972878;28;20284;-77
2022/05/06 09:57:06;;;;;;;2.17;1.90;;;;;;;;;;4974153;28;20212;-77
2022/05/06 09:59:35;;;;;;;2.93;2.03;;;;;;;;;;4980303;28;20191;-77
2022/05/06 10:02:01;;;;;;;3.93;2.00;;;;;;;;;;4989586;28;20648;-77
2022/05/06 10:04:28;;;;;;;2.90;1.93;;;;;;;;;;4973545;28;20276;-78
2022/05/06 10:06:57;;;;;;;3.23;2.00;;;;;;;;;;4974924;28;20214;-75
2022/05/06 10:09:24;;;;;;;2.90;2.00;;;;;;;;;;4969729;28;20192;-76
2022/05/06 10:11:53;;;;;;;4.43;1.97;;;;;;;;;;4973297;28;20180;-75
2022/05/06 10:14:20;;;;;;;2.80;1.80;;;;;;;;;;4970223;28;20247;-76
2022/05/06 10:16:47;;;;;;;2.43;1.80;;;;;;;;;;4975728;28;20572;-76
2022/05/06 10:19:28;;;;;;;2.10;1.90;;;;;;;;;;4974207;28;20180;-76
2022/05/06 10:21:56;;;;;;;3.50;2.40;;;;;;;;;;4969439;28;20586;-76
2022/05/06 10:24:22;;;;;;;2.63;2.10;;;;;;;;;;4976459;28;20216;-79
2022/05/06 10:26:50;;;;;;;3.43;2.17;;;;;;;;;;4977166;28;20568;-76
2022/05/06 10:32:56;;;;;;;4.37;2.20;;;;;;;;;;4975310;28;20675;-75
2022/05/06 10:35:42;;;;;;;3.07;1.93;;;;;;;;;;4963123;28;20197;-77
2022/05/06 10:38:28;;;;;;;3.17;2.10;;;;;;;;;;4978260;28;20215;-76
2022/05/06 10:40:57;;;;;;;3.70;2.50;;;;;;;;;;4975202;28;20731;-77
2022/05/06 10:43:38;;;;;;;5.27;2.53;;;;;;;;;;4974895;28;20708;-76
2022/05/06 10:46:04;;;;;;;2.23;1.90;;;;;;;;;;4975156;28;20223;-77
2022/05/06 10:48:30;;;;;;;2.97;2.20;;;;;;;;;;4971259;28;20218;-77
2022/05/06 10:51:17;;;;;;;2.90;2.10;;;;;;;;;;4974030;28;20196;-77
2022/05/06 10:53:43;;;;;;;3.53;1.90;;;;;;;;;;4974276;28;20226;-76
2022/05/06 10:56:09;;;;;;;2.60;1.97;;;;;;;;;;4989923;28;20200;-77
2022/05/06 10:58:35;;;;;;;3.73;2.13;;;;;;;;;;4967558;28;20183;-77
2022/05/06 11:01:01;;;;;;;3.17;2.17;;;;;;;;;;4978457;28;20255;-77
2022/05/06 11:03:27;;;;;;;2.30;1.90;;;;;;;;;;4970860;28;20184;-77
2022/05/06 11:05:53;;;;;;;3.07;2.10;;;;;;;;;;4975676;28;20340;-77
2022/05/06 11:08:21;;;;;;;2.77;2.03;;;;;;;;;;4968952;28;20191;-76
2022/05/06 11:10:49;;;;;;;3.03;1.93;;;;;;;;;;4971334;28;20236;-76
2022/05/06 11:13:18;;;;;;;2.50;2.03;;;;;;;;;;4975139;28;20231;-78
2022/05/06 11:15:45;;;;;;;2.37;2.00;;;;;;;;;;4972287;28;20255;-76
2022/05/06 11:18:13;;;;;;;4.63;1.90;;;;;;;;;;4973070;28;20177;-75
2022/05/06 11:20:39;;;;;;;2.37;1.70;;;;;;;;;;4971332;28;20196;-76
2022/05/06 11:23:06;;;;;;;3.57;1.90;;;;;;;;;;4973889;28;20212;-78
2022/05/06 11:25:34;;;;;;;2.90;1.60;;;;;;;;;;4973313;28;20195;-77
2022/05/06 11:28:24;;;;;;;4.50;1.63;;;;;;;;;;4979208;28;20184;-78
2022/05/06 11:30:54;;;;;;;2.13;1.70;;;;;;;;;;4975539;28;20727;-79
2022/05/06 11:33:24;;;;;;;1.83;1.60;;;;;;;;;;4975527;28;20209;-80
2022/05/06 11:35:51;;;;;;;2.27;1.90;;;;;;;;;;4974239;28;20200;-80
2022/05/06 11:38:34;;;;;;;2.33;2.00;;;;;;;;;;4966155;28;20654;-79
2022/05/06 11:41:10;;;;;;;4.10;2.20;;;;;;;;;;4971288;28;20275;-75
2022/05/06 11:43:37;;;;;;;2.23;1.80;;;;;;;;;;4972434;28;20194;-74
2022/05/06 11:48:49;;;;;;;3.73;1.67;;;;;;;;;;4973104;28;20181;-76
2022/05/06 11:51:16;;;;;;;3.70;1.83;;;;;;;;;;4969999;28;20189;-74
2022/05/06 11:53:43;;;;;;;2.43;1.70;;;;;;;;;;4973100;28;20204;-76
2022/05/06 11:56:10;;;;;;;2.47;1.70;;;;;;;;;;4974119;28;20223;-79
2022/05/06 11:58:37;;;;;;;2.80;1.90;;;;;;;;;;4974205;28;20177;-79
2022/05/06 12:01:03;;;;;;;2.60;1.77;;;;;;;;;;4973605;28;20173;-75
2022/05/06 12:03:30;;;;;;;1.97;1.70;;;;;;;;;;4987326;28;20201;-76
2022/05/06 12:06:06;;;;;;;3.40;1.80;;;;;;;;;;4970267;28;20208;-75
2022/05/06 12:08:33;;;;;;;2.27;1.80;;;;;;;;;;4970700;28;20180;-75
2022/05/06 12:11:07;;;;;;;3.37;2.03;;;;;;;;;;4970417;28;20900;-75
2022/05/06 12:13:40;;;;;;;2.87;1.90;;;;;;;;;;4968617;28;20222;-75
2022/05/06 12:16:11;;;;;;;4.47;1.90;;;;;;;;;;4971326;28;20212;-75
2022/05/06 12:18:39;;;;;;;2.27;1.73;;;;;;;;;;4971538;28;20172;-75
2022/05/06 12:21:18;;;;;;;2.83;1.80;;;;;;;;;;4970874;28;20278;-75
2022/05/06 12:23:49;;;;;;;2.53;1.70;;;;;;;;;;4972959;28;20188;-75
2022/05/06 12:26:26;;;;;;;2.00;1.70;;;;;;;;;;4971615;28;20738;-75
2022/05/06 12:28:52;;;;;;;2.80;1.70;;;;;;;;;;4970719;28;20206;-75
2022/05/06 12:31:25;;;;;;;2.20;1.83;;;;;;;;;;4972817;28;20239;-76
2022/05/06 12:33:59;;;;;;;3.50;1.80;;;;;;;;;;4971068;28;20669;-78
2022/05/06 12:36:25;;;;;;;3.30;1.80;;;;;;;;;;4974862;28;20732;-79
2022/05/06 12:38:52;;;;;;;2.50;1.60;;;;;;;;;;4981121;28;20258;-78
2022/05/06 12:41:22;;;;;;;3.27;1.70;;;;;;;;;;4974041;28;20280;-76
2022/05/06 12:43:48;;;;;;;3.80;1.87;;;;;;;;;;4968710;28;20182;-78
2022/05/06 12:46:31;;;;;;;4.00;1.97;;;;;;;;;;4973207;28;20300;-81
2022/05/06 12:51:43;;;;;;;2.80;1.90;;;;;;;;;;4982953;28;20203;-77
2022/05/06 12:54:10;;;;;;;4.47;2.10;;;;;;;;;;4973584;28;20216;-77
2022/05/06 12:56:37;;;;;;;2.80;1.93;;;;;;;;;;4971315;28;20705;-75
2022/05/06 12:59:04;;;;;;;4.60;2.00;;;;;;;;;;4967825;28;20264;-75
2022/05/06 13:01:31;;;;;;;3.10;1.70;;;;;;;;;;4972299;28;20260;-76
2022/05/06 13:03:57;;;;;;;2.47;1.70;;;;;;;;;;4971720;28;20550;-76
2022/05/06 13:06:23;;;;;;;2.67;2.10;;;;;;;;;;4979140;28;20544;-78
2022/05/06 13:08:49;;;;;;;2.83;1.80;;;;;;;;;;4978871;28;20190;-78
2022/05/06 13:11:16;;;;;;;3.03;1.70;;;;;;;;;;4986097;28;20320;-78
2022/05/06 13:13:42;;;;;;;2.87;1.63;;;;;;;;;;4972316;28;20205;-76
2022/05/06 13:16:14;;;;;;;1.53;1.43;;;;;;;;;;4971479;28;20262;-76
2022/05/06 13:18:43;;;;;;;3.93;1.67;;;;;;;;;;4972171;28;20169;-77
2022/05/06 13:21:10;;;;;;;2.00;1.57;;;;;;;;;;4972597;28;20557;-77
2022/05/06 13:23:42;;;;;;;3.23;1.60;;;;;;;;;;4972890;28;20181;-77
2022/05/06 13:26:09;;;;;;;4.07;1.57;;;;;;;;;;4974022;28;20214;-78
2022/05/06 13:28:36;;;;;;;2.80;1.73;;;;;;;;;;4972192;28;20207;-80
2022/05/06 13:31:02;;;;;;;3.23;1.63;;;;;;;;;;4989528;28;20190;-79
2022/05/06 13:33:29;;;;;;;1.70;1.50;;;;;;;;;;4972615;28;20217;-79
2022/05/06 13:35:58;;;;;;;6.03;1.60;;;;;;;;;;4972922;28;20347;-76
2022/05/06 13:38:24;;;;;;;2.57;1.60;;;;;;;;;;4971692;28;20654;-78
2022/05/06 13:40:50;;;;;;;3.33;1.40;;;;;;;;;;4983144;28;20190;-77
2022/05/06 13:43:17;;;;;;;3.23;1.57;;;;;;;;;;4971490;28;20675;-77
2022/05/06 13:45:43;;;;;;;2.57;1.80;;;;;;;;;;4971421;28;20638;-76
2022/05/06 13:48:12;;;;;;;3.53;1.60;;;;;;;;;;4965630;28;20206;-77
2022/05/06 13:50:39;;;;;;;3.70;1.47;;;;;;;;;;4965067;28;20184;-78
2022/05/06 13:53:06;;;;;;;3.83;1.80;;;;;;;;;;4972212;28;20619;-78
2022/05/06 14:01:03;;;;;;;2.20;1.50;;;;;;;;;;4970886;28;20244;-77
2022/05/06 14:03:29;;;;;;;3.50;1.60;;;;;;;;;;4972707;28;20647;-77
2022/05/06 14:05:56;;;;;;;2.70;1.40;;;;;;;;;;4972001;28;20716;-77
2022/05/06 14:08:22;;;;;;;2.13;1.40;;;;;;;;;;4972619;28;20825;-77
2022/05/06 14:10:48;;;;;;;1.57;1.30;;;;;;;;;;4971426;28;20187;-78
2022/05/06 14:13:15;;;;;;;2.63;1.50;;;;;;;;;;4972328;28;20230;-77
2022/05/06 14:15:42;;;;;;;2.97;1.50;;;;;;;;;;4965851;28;20653;-78
2022/05/06 14:18:08;;;;;;;2.90;1.40;;;;;;;;;;4968123;28;20163;-77
2022/05/06 14:20:35;;;;;;;3.23;1.30;;;;;;;;;;4967612;28;20741;-77
2022/05/06 14:23:01;;;;;;;2.83;1.40;;;;;;;;;;4968623;28;20184;-78
2022/05/06 14:25:28;;;;;;;1.53;1.30;;;;;;;;;;4971258;28;20234;-78
2022/05/06 14:27:54;;;;;;;1.97;1.30;;;;;;;;;;4970955;28;21891;-77
2022/05/06 14:30:20;;;;;;;1.90;1.20;;;;;;;;;;4967946;28;20290;-76
2022/05/06 14:32:47;;;;;;;2.07;1.43;;;;;;;;;;4966839;28;20252;-76
2022/05/06 14:35:16;;;;;;;1.70;1.30;;;;;;;;;;4968260;28;20181;-76
2022/05/06 14:37:43;;;;;;;1.53;1.20;;;;;;;;;;4966904;28;20205;-77
2022/05/06 14:40:10;;;;;;;1.50;1.30;;;;;;;;;;4967938;28;20190;-76
2022/05/06 14:42:36;;;;;;;3.63;1.37;;;;;;;;;;4965665;28;20181;-77
2022/05/06 14:45:02;;;;;;;3.27;1.30;;;;;;;;;;4971269;28;20272;-77
2022/05/06 14:47:28;;;;;;;2.20;1.20;;;;;;;;;;4974806;28;20198;-74
2022/05/06 14:49:54;;;;;;;1.20;1.10;;;;;;;;;;4973867;28;20576;-75
2022/05/06 14:52:23;;;;;;;1.73;1.30;;;;;;;;;;4974683;28;20266;-75
2022/05/06 14:54:56;;;;;;;1.60;1.23;;;;;;;;;;4966083;28;20204;-75
2022/05/06 14:57:23;;;;;;;1.70;1.13;;;;;;;;;;4967478;28;20746;-77
2022/05/06 14:59:49;;;;;;;2.23;1.40;;;;;;;;;;4971649;28;20282;-77
2022/05/06 15:02:16;;;;;;;2.07;1.20;;;;;;;;;;4975151;28;20182;-79
2022/05/06 15:04:42;;;;;;;2.23;1.20;;;;;;;;;;4972468;28;20289;-80
2022/05/06 15:07:08;;;;;;;1.93;1.30;;;;;;;;;;4971933;28;20201;-78
2022/05/06 15:09:34;;;;;;;2.73;1.30;;;;;;;;;;4970967;28;20184;-82
2022/05/06 15:12:00;;;;;;;1.80;1.13;;;;;;;;;;4969501;28;20207;-77
2022/05/06 15:14:31;;;;;;;2.10;1.40;;;;;;;;;;4972222;28;20206;-78
2022/05/06 15:17:04;;;;;;;2.13;1.20;;;;;;;;;;4970357;28;20317;-76
2022/05/06 15:19:32;;;;;;;2.17;1.50;;;;;;;;;;4968309;28;20249;-75
2022/05/06 15:21:59;;;;;;;2.60;1.40;;;;;;;;;;4964612;28;20189;-78
2022/05/06 15:24:26;;;;;;;1.90;1.60;;;;;;;;;;4970650;28;20227;-78
2022/05/06 15:26:53;;;;;;;1.40;1.30;;;;;;;;;;4965026;28;20201;-77
2022/05/06 15:29:19;;;;;;;1.67;1.50;;;;;;;;;;4972167;28;20356;-75
2022/05/06 15:31:45;;;;;;;1.37;1.23;;;;;;;;;;4970929;28;20189;-75
2022/05/06 15:34:17;;;;;;;2.87;1.40;;;;;;;;;;4970424;28;20221;-75
2022/05/06 15:36:43;;;;;;;2.10;1.20;;;;;;;;;;4969570;28;20272;-75
2022/05/06 15:39:10;;;;;;;2.73;1.40;;;;;;;;;;4968377;28;20276;-79